createdAt,value
2018-09-11T00:00:29.209Z,0.00
2018-09-11T00:01:29.124Z,0.00
2018-09-11T00:02:29.132Z,0.00
2018-09-11T00:03:29.068Z,0.00
2018-09-11T00:04:29.660Z,0.00
2018-09-11T00:05:28.996Z,0.00
2018-09-11T00:06:29.013Z,0.00
2018-09-11T00:07:29.303Z,0.00
2018-09-11T00:08:28.967Z,0.00
2018-09-11T00:09:28.989Z,0.00
2018-09-11T00:10:28.949Z,0.00
2018-09-11T00:11:28.929Z,0.00
2018-09-11T00:12:28.924Z,0.00
2018-09-11T00:13:28.909Z,0.00
2018-09-11T00:14:28.895Z,0.00
2018-09-11T00:15:28.915Z,0.00
2018-09-11T00:16:28.876Z,0.00
2018-09-11T00:17:28.863Z,0.00
2018-09-11T00:18:28.853Z,0.00
2018-09-11T00:19:28.845Z,0.00
2018-09-11T00:20:28.853Z,0.00
2018-09-11T00:21:28.822Z,0.00
2018-09-11T00:22:28.812Z,0.00
2018-09-11T00:23:28.788Z,0.00
2018-09-11T00:24:28.776Z,0.00
2018-09-11T00:25:28.795Z,0.00
2018-09-11T00:26:28.758Z,0.00
2018-09-11T00:27:28.746Z,0.00
2018-09-11T00:28:28.739Z,0.00
2018-09-11T00:29:28.717Z,0.00
2018-09-11T00:30:28.731Z,0.00
2018-09-11T00:31:28.704Z,0.00
2018-09-11T00:32:28.692Z,0.00
2018-09-11T00:33:28.671Z,0.00
2018-09-11T00:34:28.668Z,0.00
2018-09-11T00:35:28.677Z,0.00
2018-09-11T00:36:28.644Z,0.00
2018-09-11T00:37:28.635Z,0.00
2018-09-11T00:38:28.623Z,0.00
2018-09-11T00:39:28.605Z,0.00
2018-09-11T00:40:28.613Z,0.00
2018-09-11T00:41:28.584Z,0.00
2018-09-11T00:42:28.569Z,0.00
2018-09-11T00:43:28.561Z,0.00
2018-09-11T00:44:28.549Z,0.00
2018-09-11T00:45:28.557Z,0.00
2018-09-11T00:46:28.526Z,0.00
2018-09-11T00:47:28.511Z,0.00
2018-09-11T00:48:28.503Z,0.00
2018-09-11T00:49:28.487Z,0.00
2018-09-11T00:50:28.495Z,0.00
2018-09-11T00:51:28.464Z,0.00
2018-09-11T00:52:28.459Z,0.00
2018-09-11T00:53:28.444Z,0.00
2018-09-11T00:54:28.429Z,0.00
2018-09-11T00:55:28.443Z,0.00
2018-09-11T00:56:28.405Z,0.00
2018-09-11T00:57:28.400Z,0.00
2018-09-11T00:58:28.379Z,0.00
2018-09-11T00:59:28.376Z,0.00
2018-09-11T01:00:28.393Z,0.00
2018-09-11T01:01:28.353Z,0.00
2018-09-11T01:02:28.342Z,0.00
2018-09-11T01:03:28.322Z,0.00
2018-09-11T01:04:28.318Z,0.00
2018-09-11T01:05:28.299Z,0.00
2018-09-11T01:06:28.311Z,0.00
2018-09-11T01:07:28.274Z,0.00
2018-09-11T01:08:28.269Z,0.00
2018-09-11T01:09:28.259Z,0.00
2018-09-11T01:10:28.241Z,0.00
2018-09-11T01:11:28.259Z,0.00
2018-09-11T01:12:28.219Z,0.00
2018-09-11T01:13:28.210Z,0.00
2018-09-11T01:14:28.198Z,0.00
2018-09-11T01:15:28.186Z,0.00
2018-09-11T01:16:28.197Z,0.00
2018-09-11T01:17:28.160Z,0.00
2018-09-11T01:18:28.151Z,0.00
2018-09-11T01:19:28.141Z,0.00
2018-09-11T01:20:28.131Z,0.00
2018-09-11T01:21:28.135Z,0.00
2018-09-11T01:22:28.105Z,0.00
2018-09-11T01:23:28.097Z,0.00
2018-09-11T01:24:28.082Z,0.00
2018-09-11T01:25:28.070Z,0.00
2018-09-11T01:26:28.085Z,0.00
2018-09-11T01:27:28.039Z,0.00
2018-09-11T01:28:28.035Z,0.00
2018-09-11T01:29:28.020Z,0.00
2018-09-11T01:30:28.004Z,0.00
2018-09-11T01:31:28.026Z,0.00
2018-09-11T01:32:27.985Z,0.00
2018-09-11T01:33:27.976Z,0.00
2018-09-11T01:34:27.968Z,0.00
2018-09-11T01:35:27.952Z,0.00
2018-09-11T01:36:27.966Z,0.00
2018-09-11T01:37:27.925Z,0.00
2018-09-11T01:38:27.920Z,0.00
2018-09-11T01:39:27.910Z,0.00
2018-09-11T01:40:27.895Z,0.00
2018-09-11T01:41:27.907Z,0.00
2018-09-11T01:42:27.871Z,0.00
2018-09-11T01:43:27.856Z,0.00
2018-09-11T01:44:27.844Z,0.00
2018-09-11T01:45:27.836Z,0.00
2018-09-11T01:46:27.843Z,0.00
2018-09-11T01:47:27.821Z,0.00
2018-09-11T01:48:27.802Z,0.00
2018-09-11T01:49:27.787Z,0.00
2018-09-11T01:50:27.776Z,0.00
2018-09-11T01:51:27.785Z,0.00
2018-09-11T01:52:27.754Z,0.00
2018-09-11T01:53:27.740Z,0.00
2018-09-11T01:54:27.723Z,0.00
2018-09-11T01:55:27.721Z,0.00
2018-09-11T01:56:30.981Z,0.00
2018-09-11T01:57:27.690Z,0.00
2018-09-11T01:58:27.709Z,0.00
2018-09-11T01:59:27.671Z,0.00
2018-09-11T02:00:27.655Z,0.00
2018-09-11T02:01:27.652Z,0.00
2018-09-11T02:02:27.636Z,0.00
2018-09-11T02:03:27.622Z,0.00
2018-09-11T02:04:27.646Z,0.00
2018-09-11T02:05:27.595Z,0.00
2018-09-11T02:06:27.588Z,0.00
2018-09-11T02:07:27.578Z,0.00
2018-09-11T02:08:27.563Z,0.00
2018-09-11T02:09:27.555Z,0.00
2018-09-11T02:10:27.562Z,0.00
2018-09-11T02:11:27.525Z,0.00
2018-09-11T02:12:27.519Z,0.00
2018-09-11T02:13:27.505Z,0.00
2018-09-11T02:14:27.491Z,0.00
2018-09-11T02:15:27.518Z,0.00
2018-09-11T02:16:27.470Z,0.00
2018-09-11T02:17:27.462Z,0.00
2018-09-11T02:18:27.447Z,0.00
2018-09-11T02:19:27.437Z,0.00
2018-09-11T02:20:27.426Z,0.00
2018-09-11T02:21:27.439Z,0.00
2018-09-11T02:22:27.403Z,0.00
2018-09-11T02:23:27.388Z,0.00
2018-09-11T02:24:27.373Z,0.00
2018-09-11T02:25:27.362Z,0.00
2018-09-11T02:26:27.350Z,0.00
2018-09-11T02:27:27.362Z,0.00
2018-09-11T02:28:27.326Z,0.00
2018-09-11T02:29:27.318Z,0.00
2018-09-11T02:30:27.304Z,0.00
2018-09-11T02:31:27.292Z,0.00
2018-09-11T02:32:27.306Z,0.00
2018-09-11T02:33:27.268Z,0.00
2018-09-11T02:34:27.259Z,0.00
2018-09-11T02:35:27.245Z,0.00
2018-09-11T02:36:27.233Z,0.00
2018-09-11T02:37:27.241Z,0.00
2018-09-11T02:38:27.219Z,0.00
2018-09-11T02:39:27.201Z,0.00
2018-09-11T02:40:27.189Z,0.00
2018-09-11T02:41:27.176Z,0.00
2018-09-11T02:42:27.205Z,0.00
2018-09-11T02:43:27.159Z,0.00
2018-09-11T02:44:27.148Z,0.00
2018-09-11T02:45:27.133Z,0.00
2018-09-11T02:46:27.124Z,0.00
2018-09-11T02:47:27.108Z,0.00
2018-09-11T02:48:27.136Z,0.00
2018-09-11T02:49:27.088Z,0.00
2018-09-11T02:50:27.073Z,0.00
2018-09-11T02:51:27.066Z,0.00
2018-09-11T02:52:27.053Z,0.00
2018-09-11T02:53:27.037Z,0.00
2018-09-11T02:54:27.054Z,0.00
2018-09-11T02:55:27.017Z,0.00
2018-09-11T02:56:27.008Z,0.00
2018-09-11T02:57:26.993Z,0.00
2018-09-11T02:58:26.987Z,0.00
2018-09-11T02:59:27.006Z,0.00
2018-09-11T03:00:26.959Z,0.00
2018-09-11T03:01:26.948Z,0.00
2018-09-11T03:02:26.935Z,0.00
2018-09-11T03:03:26.927Z,0.00
2018-09-11T03:04:26.910Z,0.00
2018-09-11T03:05:26.936Z,0.00
2018-09-11T03:06:26.892Z,0.00
2018-09-11T03:07:26.879Z,0.00
2018-09-11T03:08:26.871Z,0.00
2018-09-11T03:09:26.850Z,0.00
2018-09-11T03:10:26.839Z,0.00
2018-09-11T03:11:26.855Z,0.00
2018-09-11T03:12:26.818Z,0.00
2018-09-11T03:13:26.808Z,0.00
2018-09-11T03:14:26.797Z,0.00
2018-09-11T03:15:26.786Z,0.00
2018-09-11T03:16:26.802Z,0.00
2018-09-11T03:17:26.760Z,0.00
2018-09-11T03:18:26.751Z,0.00
2018-09-11T03:19:26.738Z,0.00
2018-09-11T03:20:26.725Z,0.00
2018-09-11T03:21:26.721Z,0.00
2018-09-11T03:22:26.723Z,0.00
2018-09-11T03:23:26.693Z,0.00
2018-09-11T03:24:26.683Z,0.00
2018-09-11T03:25:26.668Z,0.00
2018-09-11T03:26:26.661Z,0.00
2018-09-11T03:27:26.666Z,0.00
2018-09-11T03:28:26.636Z,0.00
2018-09-11T03:29:26.629Z,0.00
2018-09-11T03:30:26.614Z,0.00
2018-09-11T03:31:26.605Z,0.00
2018-09-11T03:32:26.611Z,0.00
2018-09-11T03:33:26.579Z,0.00
2018-09-11T03:34:26.571Z,0.00
2018-09-11T03:35:26.548Z,0.00
2018-09-11T03:36:26.542Z,0.00
2018-09-11T03:37:26.556Z,0.00
2018-09-11T03:38:26.515Z,0.00
2018-09-11T03:39:26.512Z,0.00
2018-09-11T03:40:26.504Z,0.00
2018-09-11T03:41:26.480Z,0.00
2018-09-11T03:42:26.498Z,0.00
2018-09-11T03:43:26.456Z,0.00
2018-09-11T03:44:26.454Z,0.00
2018-09-11T03:45:26.439Z,0.00
2018-09-11T03:46:26.431Z,0.00
2018-09-11T03:47:26.432Z,0.00
2018-09-11T03:48:26.399Z,0.00
2018-09-11T03:49:26.396Z,0.00
2018-09-11T03:50:26.376Z,0.00
2018-09-11T03:51:26.366Z,0.00
2018-09-11T03:52:26.375Z,0.00
2018-09-11T03:53:26.347Z,0.00
2018-09-11T03:54:26.331Z,0.00
2018-09-11T03:55:26.322Z,0.00
2018-09-11T03:56:26.311Z,0.00
2018-09-11T03:57:26.318Z,0.00
2018-09-11T03:58:26.288Z,0.00
2018-09-11T03:59:26.280Z,0.00
2018-09-11T04:00:26.258Z,0.00
2018-09-11T04:01:26.255Z,0.00
2018-09-11T04:02:26.257Z,0.00
2018-09-11T04:03:26.233Z,0.00
2018-09-11T04:04:26.220Z,0.00
2018-09-11T04:05:26.260Z,0.00
2018-09-11T04:06:26.197Z,0.00
2018-09-11T04:07:26.200Z,0.00
2018-09-11T04:08:26.164Z,0.00
2018-09-11T04:09:26.161Z,0.00
2018-09-11T04:10:26.147Z,0.00
2018-09-11T04:11:26.132Z,0.00
2018-09-11T04:12:26.148Z,0.00
2018-09-11T04:13:26.106Z,0.00
2018-09-11T04:14:26.097Z,0.00
2018-09-11T04:15:26.090Z,0.00
2018-09-11T04:16:26.074Z,0.00
2018-09-11T04:17:26.094Z,0.00
2018-09-11T04:18:26.058Z,0.00
2018-09-11T04:19:26.037Z,0.00
2018-09-11T04:20:26.031Z,0.00
2018-09-11T04:21:26.015Z,0.00
2018-09-11T04:22:26.001Z,0.00
2018-09-11T04:23:26.020Z,0.00
2018-09-11T04:24:25.976Z,0.00
2018-09-11T04:25:25.980Z,0.00
2018-09-11T04:26:25.959Z,0.00
2018-09-11T04:27:25.945Z,0.00
2018-09-11T04:28:25.961Z,0.00
2018-09-11T04:29:25.918Z,0.00
2018-09-11T04:30:25.910Z,4.00
2018-09-11T04:31:25.904Z,4.00
2018-09-11T04:32:25.893Z,4.00
2018-09-11T04:33:25.901Z,4.00
2018-09-11T04:34:25.863Z,4.00
2018-09-11T04:35:25.849Z,8.00
2018-09-11T04:36:25.902Z,8.00
2018-09-11T04:37:25.834Z,8.00
2018-09-11T04:38:25.836Z,8.00
2018-09-11T04:39:25.809Z,12.00
2018-09-11T04:40:25.793Z,16.00
2018-09-11T04:41:25.784Z,16.00
2018-09-11T04:42:25.775Z,16.00
2018-09-11T04:43:25.780Z,24.00
2018-09-11T04:44:25.749Z,28.00
2018-09-11T04:45:25.734Z,32.00
2018-09-11T04:46:25.719Z,36.00
2018-09-11T04:47:25.721Z,44.00
2018-09-11T04:48:25.724Z,52.00
2018-09-11T04:49:25.696Z,56.00
2018-09-11T05:34:16.425Z,2632.00
2018-09-11T05:35:16.370Z,2704.00
2018-09-11T05:36:16.351Z,2760.00
2018-09-11T05:37:16.328Z,2848.00
2018-09-11T05:38:16.323Z,2944.00
2018-09-11T05:39:16.300Z,3012.00
2018-09-11T05:40:16.273Z,3124.00
2018-09-11T05:41:16.272Z,3184.00
2018-09-11T05:42:16.250Z,3172.00
2018-09-11T05:43:16.261Z,3184.00
2018-09-11T05:44:16.237Z,3292.00
2018-09-11T05:45:16.257Z,3344.00
2018-09-11T05:46:16.626Z,3396.00
2018-09-11T05:47:16.373Z,3204.00
2018-09-11T05:48:16.213Z,2952.00
2018-09-11T05:49:16.175Z,2864.00
2018-09-11T05:50:16.187Z,2876.00
2018-09-11T05:51:16.156Z,3136.00
2018-09-11T05:52:16.165Z,3172.00
2018-09-11T05:53:16.157Z,3440.00
2018-09-11T05:54:16.119Z,3696.00
2018-09-11T05:55:16.105Z,3856.00
2018-09-11T05:56:16.093Z,4364.00
2018-09-11T05:57:16.081Z,4236.00
2018-09-11T05:58:16.097Z,4064.00
2018-09-11T05:59:16.054Z,4164.00
2018-09-11T06:00:16.047Z,4104.00
2018-09-11T06:01:16.029Z,4160.00
2018-09-11T06:02:16.022Z,4704.00
2018-09-11T06:03:16.030Z,4656.00
2018-09-11T06:04:15.999Z,4448.00
2018-09-11T06:05:15.992Z,4528.00
2018-09-11T06:06:15.969Z,4448.00
2018-09-11T06:07:15.961Z,4272.00
2018-09-11T06:08:15.970Z,4432.00
2018-09-11T06:09:15.934Z,4500.00
2018-09-11T06:10:15.931Z,4652.00
2018-09-11T06:11:15.912Z,4996.00
2018-09-11T06:12:15.908Z,5460.00
2018-09-11T06:13:15.919Z,6432.00
2018-09-11T06:14:15.875Z,7392.00
2018-09-11T06:15:15.869Z,9640.00
2018-09-11T06:16:15.892Z,10016.00
2018-09-11T06:17:15.840Z,8848.00
2018-09-11T06:18:15.858Z,23776.00
2018-09-11T06:19:15.825Z,15628.00
2018-09-11T06:20:15.809Z,12768.00
2018-09-11T06:21:15.793Z,9380.00
2018-09-11T06:22:15.790Z,10208.00
2018-09-11T06:23:15.796Z,21280.00
2018-09-11T06:24:15.763Z,10492.00
2018-09-11T06:25:15.758Z,16800.00
2018-09-11T06:26:15.732Z,18656.00
2018-09-11T06:27:15.724Z,12120.00
2018-09-11T06:28:15.732Z,17248.00
2018-09-11T06:29:15.732Z,17696.00
2018-09-11T06:30:15.691Z,23904.00
2018-09-11T06:31:15.679Z,24544.00
2018-09-11T06:32:15.664Z,20160.00
2018-09-11T06:33:15.678Z,24992.00
2018-09-11T06:34:15.647Z,35104.00
2018-09-11T06:35:15.629Z,34912.00
2018-09-11T06:36:15.624Z,44192.00
2018-09-11T06:37:15.605Z,37728.00
2018-09-11T06:38:15.622Z,47296.00
2018-09-11T06:39:15.589Z,32640.00
2018-09-11T06:40:15.567Z,18080.00
2018-09-11T06:41:15.636Z,11636.00
2018-09-11T06:42:15.546Z,14672.00
2018-09-11T06:43:15.555Z,19200.00
2018-09-11T06:44:15.525Z,13700.00
2018-09-11T06:45:15.517Z,12508.00
2018-09-11T06:46:15.502Z,16320.00
2018-09-11T06:47:15.500Z,12832.00
2018-09-11T06:48:15.539Z,23008.00
2018-09-11T06:49:15.469Z,25280.00
2018-09-11T06:50:15.453Z,33120.00
2018-09-11T06:51:15.449Z,37088.00
2018-09-11T06:52:15.429Z,39744.00
2018-09-11T06:53:15.441Z,24992.00
2018-09-11T06:54:15.413Z,18528.00
2018-09-11T06:55:15.394Z,40992.00
2018-09-11T06:56:15.393Z,49120.00
2018-09-11T06:57:15.377Z,52384.00
2018-09-11T06:58:15.383Z,53792.00
2018-09-11T06:59:15.352Z,56672.00
2018-09-11T07:00:15.342Z,56960.00
2018-09-11T07:01:15.328Z,47392.00
2018-09-11T07:02:15.312Z,40416.00
2018-09-11T07:03:15.323Z,36736.00
2018-09-11T07:04:15.306Z,36480.00
2018-09-11T07:05:15.280Z,34240.00
2018-09-11T07:06:15.273Z,39520.00
2018-09-11T07:07:15.252Z,36064.00
2018-09-11T07:08:15.271Z,36320.00
2018-09-11T07:09:15.230Z,34112.00
2018-09-11T07:10:15.226Z,32608.00
2018-09-11T07:11:15.217Z,37984.00
2018-09-11T07:12:15.196Z,39776.00
2018-09-11T07:13:15.216Z,30208.00
2018-09-11T07:14:15.177Z,26144.00
2018-09-11T07:15:15.160Z,29472.00
2018-09-11T07:16:15.151Z,32544.00
2018-09-11T07:17:15.136Z,33248.00
2018-09-11T07:18:15.151Z,33632.00
2018-09-11T07:19:15.123Z,34400.00
2018-09-11T07:20:15.347Z,35072.00
2018-09-11T07:21:15.093Z,34592.00
2018-09-11T07:22:15.087Z,32576.00
2018-09-11T07:23:15.100Z,31136.00
2018-09-11T07:24:15.058Z,32672.00
2018-09-11T07:25:15.054Z,31424.00
2018-09-11T07:26:15.126Z,28576.00
2018-09-11T07:27:15.024Z,27072.00
2018-09-11T07:28:15.043Z,28736.00
2018-09-11T07:29:14.998Z,30368.00
2018-09-11T07:30:15.041Z,31776.00
2018-09-11T07:31:14.979Z,28544.00
2018-09-11T07:32:14.996Z,28064.00
2018-09-11T07:33:14.978Z,28768.00
2018-09-11T07:34:14.946Z,33248.00
2018-09-11T07:35:14.927Z,31776.00
2018-09-11T07:36:14.932Z,35296.00
2018-09-11T07:37:14.911Z,34144.00
2018-09-11T07:38:14.925Z,36448.00
2018-09-11T07:39:14.886Z,33376.00
2018-09-11T07:40:14.880Z,33920.00
2018-09-11T07:41:14.858Z,35584.00
2018-09-11T07:42:14.855Z,34528.00
2018-09-11T07:43:14.866Z,36416.00
2018-09-11T07:44:14.822Z,38624.00
2018-09-11T07:45:14.823Z,37696.00
2018-09-11T07:46:14.798Z,37728.00
2018-09-11T07:47:14.787Z,43232.00
2018-09-11T07:48:14.799Z,46656.00
2018-09-11T07:49:14.771Z,44832.00
2018-09-11T07:50:14.756Z,39456.00
2018-09-11T07:51:14.744Z,39520.00
2018-09-11T07:52:14.735Z,40128.00
2018-09-11T07:53:14.742Z,39712.00
2018-09-11T07:54:14.706Z,44864.00
2018-09-11T07:55:14.700Z,48384.00
2018-09-11T07:56:14.692Z,41408.00
2018-09-11T07:57:14.682Z,40352.00
2018-09-11T07:58:14.685Z,37824.00
2018-09-11T07:59:14.656Z,41440.00
2018-09-11T08:00:14.641Z,45888.00
2018-09-11T08:01:14.628Z,47712.00
2018-09-11T08:02:14.626Z,44192.00
2018-09-11T08:03:14.669Z,43680.00
2018-09-11T08:04:14.601Z,44992.00
2018-09-11T08:05:14.621Z,45376.00
2018-09-11T08:06:14.581Z,49856.00
2018-09-11T08:07:14.564Z,59712.00
2018-09-11T08:08:14.570Z,65440.00
2018-09-11T08:09:14.534Z,63168.00
2018-09-11T08:10:14.530Z,65632.00
2018-09-11T08:11:14.516Z,68032.00
2018-09-11T08:12:14.503Z,77632.00
2018-09-11T08:13:14.509Z,87296.00
2018-09-11T08:14:14.486Z,72000.00
2018-09-11T08:15:14.471Z,78336.00
2018-09-11T08:16:14.466Z,60864.00
2018-09-11T08:17:14.452Z,48768.00
2018-09-11T08:18:14.453Z,43232.00
2018-09-11T08:19:14.420Z,39136.00
2018-09-11T08:20:14.411Z,38176.00
2018-09-11T08:21:14.398Z,37152.00
2018-09-11T08:22:14.395Z,37760.00
2018-09-11T08:23:14.400Z,34848.00
2018-09-11T08:24:14.368Z,34720.00
2018-09-11T08:25:14.359Z,34944.00
2018-09-11T08:26:14.346Z,35552.00
2018-09-11T08:27:14.332Z,34688.00
2018-09-11T08:28:14.347Z,32672.00
2018-09-11T08:29:14.332Z,33888.00
2018-09-11T08:30:14.300Z,29504.00
2018-09-11T08:31:14.289Z,33120.00
2018-09-11T08:32:14.274Z,37024.00
2018-09-11T08:33:14.289Z,36192.00
2018-09-11T08:34:14.252Z,38272.00
2018-09-11T08:35:14.241Z,16600.00
2018-09-11T08:36:14.232Z,34592.00
2018-09-11T08:37:14.229Z,34208.00
2018-09-11T08:38:14.225Z,37120.00
2018-09-11T08:39:14.199Z,39520.00
2018-09-11T08:40:14.185Z,37216.00
2018-09-11T08:41:14.170Z,38368.00
2018-09-11T08:42:14.170Z,38272.00
2018-09-11T08:43:14.177Z,38272.00
2018-09-11T08:44:14.139Z,39424.00
2018-09-11T08:45:14.132Z,42304.00
2018-09-11T08:46:14.119Z,36448.00
2018-09-11T08:47:14.105Z,11288.00
2018-09-11T08:48:14.118Z,35360.00
2018-09-11T08:49:14.084Z,38944.00
2018-09-11T08:50:14.076Z,21632.00
2018-09-11T08:51:14.066Z,37696.00
2018-09-11T08:52:14.104Z,18400.00
2018-09-11T08:53:14.062Z,37792.00
2018-09-11T08:54:14.032Z,37344.00
2018-09-11T08:55:14.017Z,41888.00
2018-09-11T08:56:14.010Z,45056.00
2018-09-11T08:57:14.001Z,29248.00
2018-09-11T08:58:14.001Z,36896.00
2018-09-11T08:59:13.976Z,42784.00
2018-09-11T09:00:13.965Z,30656.00
2018-09-11T09:01:13.955Z,16380.00
2018-09-11T09:02:13.936Z,17244.00
2018-09-11T09:03:13.952Z,39008.00
2018-09-11T09:04:13.917Z,39456.00
2018-09-11T09:05:13.903Z,44800.00
2018-09-11T09:06:13.900Z,27552.00
2018-09-11T09:07:13.889Z,48736.00
2018-09-11T09:08:13.890Z,46304.00
2018-09-11T09:09:13.866Z,49632.00
2018-09-11T09:10:13.924Z,63552.00
2018-09-11T09:11:13.841Z,78432.00
2018-09-11T09:12:13.832Z,37856.00
2018-09-11T09:13:13.840Z,81312.00
2018-09-11T09:14:13.804Z,74976.00
2018-09-11T09:15:13.790Z,79360.00
2018-09-11T09:16:13.786Z,27712.00
2018-09-11T09:17:13.773Z,24928.00
2018-09-11T09:18:13.780Z,62944.00
2018-09-11T09:19:13.753Z,76544.00
2018-09-11T09:20:13.734Z,19072.00
2018-09-11T09:21:13.728Z,76640.00
2018-09-11T09:22:13.718Z,74816.00
2018-09-11T09:23:13.722Z,80992.00
2018-09-11T09:24:13.692Z,88288.00
2018-09-11T09:25:13.679Z,21408.00
2018-09-11T09:26:13.670Z,88160.00
2018-09-11T09:27:13.724Z,90496.00
2018-09-11T09:28:13.667Z,88096.00
2018-09-11T09:29:13.639Z,85568.00
2018-09-11T09:30:13.630Z,82752.00
2018-09-11T09:31:13.622Z,85056.00
2018-09-11T09:32:13.602Z,79936.00
2018-09-11T09:33:13.620Z,91488.00
2018-09-11T09:34:13.578Z,90336.00
2018-09-11T09:35:13.567Z,86144.00
2018-09-11T09:36:13.564Z,84416.00
2018-09-11T09:37:13.545Z,35712.00
2018-09-11T09:38:13.566Z,40160.00
2018-09-11T09:39:13.525Z,78816.00
2018-09-11T09:40:13.518Z,83328.00
2018-09-11T09:41:13.511Z,77248.00
2018-09-11T09:42:13.489Z,71392.00
2018-09-11T09:43:13.505Z,26880.00
2018-09-11T09:44:13.471Z,84480.00
2018-09-11T09:45:13.455Z,85600.00
2018-09-11T09:46:13.455Z,83744.00
2018-09-11T09:47:13.436Z,79520.00
2018-09-11T09:48:13.455Z,77280.00
2018-09-11T09:49:13.417Z,58880.00
2018-09-11T09:50:13.402Z,78144.00
2018-09-11T09:51:13.398Z,74656.00
2018-09-11T09:52:13.379Z,74144.00
2018-09-11T09:53:13.396Z,31104.00
2018-09-11T09:54:13.363Z,82112.00
2018-09-11T09:55:13.352Z,77216.00
2018-09-11T09:56:13.337Z,80128.00
2018-09-11T09:57:13.323Z,74048.00
2018-09-11T09:58:13.345Z,75904.00
2018-09-11T09:59:13.305Z,83552.00
2018-09-11T10:00:13.295Z,81248.00
2018-09-11T10:01:13.288Z,80704.00
2018-09-11T10:02:13.267Z,79136.00
2018-09-11T10:03:13.287Z,80128.00
2018-09-11T10:04:13.246Z,79552.00
2018-09-11T10:05:13.238Z,83616.00
2018-09-11T10:06:13.230Z,87040.00
2018-09-11T10:07:13.213Z,84960.00
2018-09-11T10:08:13.231Z,82112.00
2018-09-11T10:09:13.196Z,83168.00
2018-09-11T10:10:13.184Z,81088.00
2018-09-11T10:11:13.171Z,86432.00
2018-09-11T10:12:13.158Z,87104.00
2018-09-11T10:13:13.179Z,85408.00
2018-09-11T10:14:13.142Z,84448.00
2018-09-11T10:15:13.129Z,87104.00
2018-09-11T10:16:13.121Z,81792.00
2018-09-11T10:17:13.109Z,86336.00
2018-09-11T10:18:13.118Z,87264.00
2018-09-11T10:19:13.083Z,89056.00
2018-09-11T10:20:13.085Z,93088.00
2018-09-11T10:21:13.067Z,92192.00
2018-09-11T10:22:13.053Z,94944.00
2018-09-11T10:23:13.068Z,96608.00
2018-09-11T10:24:13.031Z,96960.00
2018-09-11T10:25:13.020Z,94880.00
2018-09-11T10:26:13.012Z,94944.00
2018-09-11T10:27:12.997Z,96512.00
2018-09-11T10:28:13.011Z,97952.00
2018-09-11T10:29:12.977Z,95584.00
2018-09-11T10:30:12.976Z,95296.00
2018-09-11T10:31:12.960Z,91264.00
2018-09-11T10:32:12.942Z,95392.00
2018-09-11T10:33:12.960Z,93024.00
2018-09-11T10:34:12.925Z,91808.00
2018-09-11T10:35:12.914Z,94528.00
2018-09-11T10:36:12.902Z,95872.00
2018-09-11T10:37:12.888Z,96992.00
2018-09-11T10:38:12.903Z,94496.00
2018-09-11T10:39:12.875Z,88896.00
2018-09-11T10:40:12.856Z,85344.00
2018-09-11T10:41:12.848Z,80768.00
2018-09-11T10:42:12.835Z,82944.00
2018-09-11T10:43:12.848Z,85184.00
2018-09-11T10:44:12.819Z,87200.00
2018-09-11T10:45:12.799Z,88128.00
2018-09-11T10:46:12.797Z,86912.00
2018-09-11T10:47:12.786Z,84256.00
2018-09-11T10:48:12.787Z,87232.00
2018-09-11T10:49:12.765Z,89504.00
2018-09-11T10:50:12.751Z,90304.00
2018-09-11T10:51:12.744Z,88896.00
2018-09-11T10:52:12.723Z,88384.00
2018-09-11T10:53:12.736Z,91168.00
2018-09-11T10:54:12.706Z,87552.00
2018-09-11T10:55:12.691Z,86048.00
2018-09-11T10:56:12.688Z,82272.00
2018-09-11T10:57:12.674Z,83904.00
2018-09-11T10:58:12.681Z,85696.00
2018-09-11T10:59:12.650Z,85664.00
2018-09-11T11:00:12.636Z,87200.00
2018-09-11T11:01:12.628Z,84160.00
2018-09-11T11:02:12.618Z,86880.00
2018-09-11T11:03:12.623Z,91424.00
2018-09-11T11:04:12.600Z,90624.00
2018-09-11T11:05:12.588Z,87200.00
2018-09-11T11:06:12.580Z,87488.00
2018-09-11T11:07:12.557Z,86976.00
2018-09-11T11:08:12.576Z,88480.00
2018-09-11T11:09:12.536Z,86816.00
2018-09-11T11:10:12.534Z,86656.00
2018-09-11T11:11:12.527Z,87840.00
2018-09-11T11:12:12.502Z,85312.00
2018-09-11T11:13:12.524Z,86496.00
2018-09-11T11:14:12.485Z,81024.00
2018-09-11T11:15:12.470Z,78400.00
2018-09-11T11:16:12.463Z,77824.00
2018-09-11T11:17:12.525Z,77504.00
2018-09-11T11:18:12.463Z,77536.00
2018-09-11T11:19:12.431Z,80608.00
2018-09-11T11:20:12.423Z,81664.00
2018-09-11T11:21:12.410Z,82304.00
2018-09-11T11:22:12.401Z,81472.00
2018-09-11T11:23:12.409Z,82016.00
2018-09-11T11:24:12.380Z,82432.00
2018-09-11T11:25:12.367Z,79680.00
2018-09-11T11:26:12.360Z,81056.00
2018-09-11T11:27:12.378Z,82432.00
2018-09-11T11:28:12.355Z,85408.00
2018-09-11T11:29:12.326Z,85216.00
2018-09-11T11:30:12.312Z,85152.00
2018-09-11T11:31:12.304Z,83712.00
2018-09-11T11:32:12.287Z,82336.00
2018-09-11T11:33:12.308Z,82848.00
2018-09-11T11:34:12.267Z,80352.00
2018-09-11T11:35:12.255Z,81632.00
2018-09-11T11:36:12.372Z,82656.00
2018-09-11T11:37:12.394Z,82976.00
2018-09-11T11:38:12.249Z,80384.00
2018-09-11T11:39:12.213Z,77216.00
2018-09-11T11:40:12.210Z,73088.00
2018-09-11T11:41:12.197Z,76480.00
2018-09-11T11:42:12.189Z,76800.00
2018-09-11T11:43:12.206Z,81440.00
2018-09-11T11:44:12.160Z,80224.00
2018-09-11T11:45:12.153Z,79520.00
2018-09-11T11:46:12.145Z,80736.00
2018-09-11T11:47:12.135Z,81408.00
2018-09-11T11:48:12.210Z,79040.00
2018-09-11T11:49:12.109Z,81984.00
2018-09-11T11:50:12.108Z,82624.00
2018-09-11T11:51:12.091Z,82400.00
2018-09-11T11:52:12.084Z,83392.00
2018-09-11T11:53:12.100Z,88256.00
2018-09-11T11:54:12.064Z,87776.00
2018-09-11T11:55:12.179Z,85728.00
2018-09-11T11:56:12.044Z,85568.00
2018-09-11T11:57:12.030Z,84320.00
2018-09-11T11:58:12.044Z,82080.00
2018-09-11T11:59:12.013Z,83616.00
2018-09-11T12:00:11.997Z,83968.00
2018-09-11T12:01:11.989Z,87200.00
2018-09-11T12:02:11.976Z,89824.00
2018-09-11T12:03:11.990Z,89856.00
2018-09-11T12:04:11.952Z,90592.00
2018-09-11T12:05:11.944Z,87968.00
2018-09-11T12:06:11.936Z,92608.00
2018-09-11T12:07:11.924Z,90080.00
2018-09-11T12:08:11.932Z,89792.00
2018-09-11T12:09:11.900Z,87360.00
2018-09-11T12:10:11.893Z,86144.00
2018-09-11T12:11:11.882Z,82848.00
2018-09-11T12:12:11.867Z,80128.00
2018-09-11T12:13:11.882Z,78592.00
2018-09-11T12:14:11.847Z,77632.00
2018-09-11T12:15:11.837Z,78272.00
2018-09-11T12:16:11.867Z,81120.00
2018-09-11T12:17:11.816Z,85248.00
2018-09-11T12:18:11.832Z,84384.00
2018-09-11T12:19:11.799Z,87264.00
2018-09-11T12:20:11.785Z,87328.00
2018-09-11T12:21:11.770Z,83808.00
2018-09-11T12:22:11.763Z,85184.00
2018-09-11T12:23:11.782Z,84864.00
2018-09-11T12:24:11.745Z,87360.00
2018-09-11T12:25:11.732Z,87936.00
2018-09-11T12:26:11.740Z,87840.00
2018-09-11T12:27:11.714Z,87360.00
2018-09-11T12:28:11.728Z,85920.00
2018-09-11T12:29:11.691Z,85216.00
2018-09-11T12:30:11.684Z,85408.00
2018-09-11T12:31:11.737Z,85984.00
2018-09-11T12:32:11.661Z,86144.00
2018-09-11T12:33:11.678Z,83328.00
2018-09-11T12:34:11.642Z,84320.00
2018-09-11T12:35:11.672Z,85024.00
2018-09-11T12:36:11.619Z,81632.00
2018-09-11T12:37:11.617Z,83328.00
2018-09-11T12:38:11.627Z,83520.00
2018-09-11T12:39:11.594Z,83040.00
2018-09-11T12:40:11.582Z,83360.00
2018-09-11T12:41:11.574Z,82016.00
2018-09-11T12:42:11.564Z,78336.00
2018-09-11T12:43:11.577Z,81248.00
2018-09-11T12:44:11.542Z,78048.00
2018-09-11T12:45:11.533Z,74784.00
2018-09-11T12:46:11.793Z,71392.00
2018-09-11T12:47:11.754Z,74848.00
2018-09-11T12:48:11.928Z,78848.00
2018-09-11T12:49:11.501Z,83200.00
2018-09-11T12:50:11.479Z,83904.00
2018-09-11T12:51:11.468Z,81696.00
2018-09-11T12:52:11.460Z,81728.00
2018-09-11T12:53:11.476Z,79648.00
2018-09-11T12:54:11.440Z,78720.00
2018-09-11T12:55:11.438Z,80448.00
2018-09-11T12:56:11.418Z,81440.00
2018-09-11T12:57:11.411Z,79808.00
2018-09-11T12:58:11.419Z,79392.00
2018-09-11T12:59:11.393Z,80256.00
2018-09-11T13:00:11.384Z,79552.00
2018-09-11T13:01:11.377Z,79776.00
2018-09-11T13:02:11.357Z,78304.00
2018-09-11T13:03:11.378Z,77888.00